createdAt,value
2023-01-27T00:04:03.255Z,36.2
2023-01-27T00:09:03.768Z,36.2
2023-01-27T00:14:04.234Z,36.2
2023-01-27T00:19:04.727Z,36.1
2023-01-27T00:24:05.115Z,36.1
2023-01-27T00:29:05.392Z,36.1
2023-01-27T00:34:05.619Z,36
2023-01-27T00:39:06.265Z,35.9
2023-01-27T00:44:06.798Z,35.9
2023-01-27T00:49:07.068Z,35.9
2023-01-27T00:54:07.324Z,35.9
2023-01-27T00:59:07.634Z,35.8
2023-01-27T01:04:08.122Z,35.7
2023-01-27T01:09:08.436Z,35.7
2023-01-27T01:14:08.903Z,35.7
2023-01-27T01:19:09.370Z,35.6
2023-01-27T01:24:09.920Z,35.6
2023-01-27T01:29:10.179Z,35.6
2023-01-27T01:34:10.690Z,35.5
2023-01-27T01:39:11.170Z,35.5
2023-01-27T01:44:11.479Z,35.4
2023-01-27T01:49:11.939Z,35.4
2023-01-27T01:54:12.438Z,35.4
2023-01-27T01:59:12.951Z,35.3
2023-01-27T02:04:13.480Z,35.3
2023-01-27T02:09:13.710Z,35.2
2023-01-27T02:14:13.955Z,35.2
2023-01-27T02:19:14.235Z,35.2
2023-01-27T02:24:14.488Z,35.1
2023-01-27T02:29:14.969Z,35.1
2023-01-27T02:34:15.197Z,35.1
2023-01-27T02:39:15.679Z,35.1
2023-01-27T02:44:15.935Z,35
2023-01-27T02:49:16.208Z,35
2023-01-27T02:54:16.711Z,34.9
2023-01-27T02:59:16.911Z,34.9
2023-01-27T03:04:17.403Z,34.9
2023-01-27T03:09:17.821Z,34.8
2023-01-27T03:14:18.344Z,34.8
2023-01-27T03:19:18.536Z,34.7
2023-01-27T03:24:19.127Z,34.7
2023-01-27T03:29:19.687Z,34.7
2023-01-27T03:34:20.099Z,34.7
2023-01-27T03:39:20.330Z,34.6
2023-01-27T03:44:20.789Z,34.6
2023-01-27T03:49:21.234Z,34.6
2023-01-27T03:54:21.512Z,34.6
2023-01-27T03:59:21.697Z,34.5
2023-01-27T04:04:21.952Z,34.5
2023-01-27T04:09:22.126Z,34.4
2023-01-27T04:14:22.327Z,34.4
2023-01-27T04:19:22.776Z,34.4
2023-01-27T04:24:23.096Z,34.4
2023-01-27T04:29:23.365Z,34.3
2023-01-27T04:34:23.816Z,34.3
2023-01-27T04:39:24.063Z,34.2
2023-01-27T04:44:24.537Z,34.2
2023-01-27T04:49:24.956Z,34.2
2023-01-27T04:54:26.825Z,34.2
2023-01-27T04:59:27.259Z,34.1
2023-01-27T05:04:29.082Z,34.1
2023-01-27T05:09:31.147Z,34.1
2023-01-27T05:14:33.298Z,34.1
2023-01-27T05:19:35.381Z,34
2023-01-27T05:24:35.597Z,34
2023-01-27T05:29:37.579Z,34
2023-01-27T05:34:39.424Z,33.9
2023-01-27T05:39:41.230Z,33.9
2023-01-27T05:44:43.075Z,33.9
2023-01-27T05:49:45.107Z,33.9
2023-01-27T05:54:46.948Z,33.9
2023-01-27T05:59:48.886Z,33.8
2023-01-27T06:04:50.742Z,33.7
2023-01-27T06:09:52.679Z,33.7
2023-01-27T06:14:52.872Z,33.7
2023-01-27T06:19:54.922Z,33.7
2023-01-27T06:24:57.019Z,33.7
2023-01-27T06:29:59.134Z,33.6
2023-01-27T06:35:01.176Z,33.6
2023-01-27T06:40:01.519Z,33.6
2023-01-27T06:45:03.652Z,33.6
2023-01-27T06:50:05.757Z,33.6
2023-01-27T06:55:07.613Z,33.5
2023-01-27T07:00:10.035Z,33.5
2023-01-27T07:05:11.885Z,33.5
2023-01-27T07:10:14.286Z,33.4
2023-01-27T07:15:16.496Z,32.3
2023-01-27T07:20:18.314Z,32
2023-01-27T07:25:20.135Z,31.9
2023-01-27T07:30:22.024Z,31.9
2023-01-27T07:35:23.875Z,31.9
2023-01-27T07:40:25.870Z,31.9
2023-01-27T07:45:27.685Z,31.9
2023-01-27T07:50:29.448Z,31.8
2023-01-27T07:55:31.423Z,31.8
2023-01-27T08:00:33.262Z,31.8
2023-01-27T08:05:35.327Z,31.8
2023-01-27T08:10:37.331Z,31.8
2023-01-27T08:15:39.135Z,31.8
2023-01-27T08:20:40.941Z,31.7
2023-01-27T08:25:42.960Z,31.7
2023-01-27T08:30:45.095Z,31.7
2023-01-27T08:35:47.098Z,31.6
2023-01-27T08:40:49.094Z,31.6
2023-01-27T08:45:51.132Z,31.6
2023-01-27T08:50:52.904Z,31.6
2023-01-27T08:55:54.651Z,31.6
2023-01-27T09:00:56.728Z,31.6
2023-01-27T09:05:58.448Z,31.5
2023-01-27T09:11:00.471Z,31.5
2023-01-27T09:16:02.363Z,31.5
2023-01-27T09:21:04.331Z,31.4
2023-01-27T09:26:06.315Z,31.4
2023-01-27T09:31:08.140Z,31.4
2023-01-27T09:36:10.019Z,31.4
2023-01-27T09:41:11.717Z,31.4
2023-01-27T09:46:13.709Z,31.4
2023-01-27T09:51:15.696Z,31.4
2023-01-27T09:56:17.432Z,31.3
2023-01-27T10:01:19.247Z,31.3
2023-01-27T10:06:20.971Z,31.2
2023-01-27T10:11:22.742Z,31.2
2023-01-27T10:16:24.985Z,31.2
2023-01-27T10:21:26.876Z,31.2
2023-01-27T10:26:28.604Z,31.2
2023-01-27T10:31:30.615Z,31.2
2023-01-27T10:36:32.363Z,31.2
2023-01-27T10:41:34.216Z,31.1
2023-01-27T10:46:35.981Z,31.1
2023-01-27T10:51:37.728Z,31.1
2023-01-27T10:56:39.466Z,31.1
2023-01-27T11:01:41.258Z,31.1
2023-01-27T11:06:42.972Z,31.1
2023-01-27T11:11:45.478Z,31.1
2023-01-27T11:16:47.237Z,31.1
2023-01-27T11:21:58.264Z,31
2023-01-27T11:27:07.101Z,31
2023-01-27T11:32:08.915Z,31
2023-01-27T11:37:10.652Z,30.9
2023-01-27T11:42:12.662Z,30.9
2023-01-27T11:47:14.694Z,30.9
2023-01-27T11:52:16.664Z,30.9
2023-01-27T11:57:18.673Z,30.9
2023-01-27T12:02:20.774Z,30.9
2023-01-27T12:07:22.552Z,30.9
2023-01-27T12:12:24.586Z,30.8
2023-01-27T12:17:26.408Z,30.8
2023-01-27T12:22:28.396Z,30.8
2023-01-27T12:27:30.466Z,30.8
2023-01-27T12:32:32.534Z,30.8
2023-01-27T12:37:34.346Z,30.8
2023-01-27T12:42:36.147Z,30.8
2023-01-27T12:47:37.941Z,30.8
2023-01-27T12:52:39.698Z,30.7
2023-01-27T12:57:41.666Z,30.7
2023-01-27T13:02:43.446Z,30.7
2023-01-27T13:07:45.183Z,30.6
2023-01-27T13:12:46.975Z,30.6
2023-01-27T13:17:49.010Z,30.6
2023-01-27T13:22:51.040Z,30.6
2023-01-27T13:27:52.830Z,30.5
2023-01-27T13:32:54.627Z,30.5
2023-01-27T13:37:56.571Z,30.5
2023-01-27T13:42:58.372Z,30.5
2023-01-27T13:48:00.434Z,30.5
2023-01-27T13:53:02.199Z,30.5
2023-01-27T13:58:03.949Z,30.4
2023-01-27T14:03:05.831Z,30.4
2023-01-27T14:08:07.634Z,30.4
2023-01-27T14:13:09.654Z,30.4
2023-01-27T14:18:12.095Z,30.4
2023-01-27T14:23:14.050Z,30.4
2023-01-27T14:28:16.068Z,30.3
2023-01-27T14:33:17.834Z,30.3
2023-01-27T14:38:19.820Z,30.3
2023-01-27T14:43:21.606Z,30.3
2023-01-27T14:48:23.441Z,30.3
2023-01-27T14:53:25.419Z,30.2
2023-01-27T14:58:27.391Z,30.2
2023-01-27T15:03:29.204Z,30.2
2023-01-27T15:08:30.994Z,30.1
2023-01-27T15:13:32.790Z,30.1
2023-01-27T15:18:34.716Z,30.1
2023-01-27T15:23:36.841Z,30.1
2023-01-27T15:28:38.860Z,30.1
2023-01-27T15:33:40.885Z,30.1
2023-01-27T15:38:42.891Z,30.1
2023-01-27T15:43:44.704Z,30.1
2023-01-27T15:48:46.716Z,30
2023-01-27T15:53:48.908Z,30
2023-01-27T15:58:50.919Z,30
2023-01-27T16:03:52.736Z,30
2023-01-27T16:08:54.507Z,30
2023-01-27T16:13:56.270Z,30
2023-01-27T16:18:58.340Z,29.9
2023-01-27T16:24:00.554Z,32.2
2023-01-27T16:29:02.705Z,35.1
2023-01-27T16:34:03.002Z,37.7
2023-01-27T16:39:03.447Z,40.4
2023-01-27T16:44:04.107Z,41.4
2023-01-27T16:49:04.733Z,41.9
2023-01-27T16:54:05.210Z,42.9
2023-01-27T16:59:05.902Z,43
2023-01-27T17:04:18.971Z,42.9
2023-01-27T17:09:20.011Z,42.9
2023-01-27T17:14:30.230Z,42.9
2023-01-27T17:19:31.222Z,43
2023-01-27T17:24:31.945Z,44
2023-01-27T17:29:32.679Z,44.1
2023-01-27T17:34:33.420Z,44.1
2023-01-27T17:39:34.176Z,44.1
2023-01-27T17:44:35.187Z,44.1
2023-01-27T17:49:35.895Z,43.7
2023-01-27T17:54:36.601Z,43.6
2023-01-27T17:59:37.135Z,43.6
2023-01-27T18:04:37.828Z,43.6
2023-01-27T18:09:38.551Z,43.5
2023-01-27T18:14:39.249Z,43.5
2023-01-27T18:19:40.354Z,43.4
2023-01-27T18:24:41.022Z,43.4
2023-01-27T18:29:41.720Z,43.4
2023-01-27T18:34:42.440Z,43.3
2023-01-27T18:39:43.165Z,43.3
2023-01-27T18:44:43.858Z,43.1
2023-01-27T18:49:44.553Z,43.1
2023-01-27T18:54:45.290Z,43
2023-01-27T18:59:46.038Z,43
2023-01-27T19:04:47.036Z,42.9
2023-01-27T19:09:47.538Z,42.9
2023-01-27T19:14:48.365Z,42.8
2023-01-27T19:19:49.080Z,42.8
2023-01-27T19:24:49.814Z,42.7
2023-01-27T19:29:50.551Z,42.7
2023-01-27T19:34:51.265Z,42.6
2023-01-27T19:39:51.972Z,42.6
2023-01-27T19:44:52.669Z,42.5
2023-01-27T19:49:53.381Z,42.5
2023-01-27T19:54:53.983Z,42.4
2023-01-27T19:59:54.729Z,42.4
2023-01-27T20:04:55.193Z,42.3
2023-01-27T20:09:55.875Z,42.2
2023-01-27T20:14:56.569Z,42.2
2023-01-27T20:19:57.314Z,42.2
2023-01-27T20:24:58.042Z,42.1
2023-01-27T20:29:58.715Z,42.1
2023-01-27T20:34:59.413Z,42
2023-01-27T20:40:00.144Z,42
2023-01-27T20:45:00.545Z,41.9
2023-01-27T20:50:00.976Z,41.8
2023-01-27T20:55:01.621Z,41.7
2023-01-27T21:00:02.089Z,41.7
2023-01-27T21:05:02.735Z,41.6
2023-01-27T21:10:03.371Z,41.6
2023-01-27T21:15:03.842Z,41.5
2023-01-27T21:20:04.265Z,41.4
2023-01-27T21:25:04.691Z,41.4
2023-01-27T21:30:05.293Z,41.4
2023-01-27T21:35:05.929Z,41.3
2023-01-27T21:40:06.572Z,41.2
2023-01-27T21:45:07.182Z,41.2
2023-01-27T21:50:07.804Z,41.1
2023-01-27T21:55:08.244Z,40.8
2023-01-27T22:00:08.703Z,40.5
2023-01-27T22:05:09.146Z,40.4
2023-01-27T22:10:09.589Z,40.3
2023-01-27T22:15:10.009Z,40.2
2023-01-27T22:20:10.388Z,40.2
2023-01-27T22:25:10.775Z,40.2
2023-01-27T22:30:11.399Z,40.1
2023-01-27T22:35:12.269Z,40
2023-01-27T22:40:13.153Z,39.9
2023-01-27T22:45:13.871Z,39.9
2023-01-27T22:50:14.452Z,39.8
2023-01-27T22:55:15.350Z,39.7
2023-01-27T23:00:16.011Z,39.7
2023-01-27T23:05:16.787Z,39.7
2023-01-27T23:10:17.333Z,39.6
2023-01-27T23:15:18.061Z,39.6
2023-01-27T23:20:18.693Z,39.5
2023-01-27T23:25:19.023Z,39.4
2023-01-27T23:30:19.835Z,39.4
2023-01-27T23:35:20.195Z,39.4
2023-01-27T23:40:20.808Z,39.3
2023-01-27T23:45:21.146Z,39.2
2023-01-27T23:50:21.515Z,39.2
2023-01-27T23:55:21.943Z,39.2
